Time;durP1;ratioP1;P1;durP2;ratioP2;P2;SDS_P1;SDS_P2;PMS_P1;PMS_P2;Temp;Humidity;BMP_temperature;BMP_pressure;BME280_temperature;BME280_humidity;BME280_pressure;Samples;Min_cycle;Max_cycle;Signal;HPM_P1;HPM_P2
2020/12/11 00:00:27;;;;;;;32.85;22.38;;;;;;;0.58;93.58;94880.59;1052628;28;20028;-85
2020/12/11 00:00:57;;;;;;;34.08;23.90;;;;;;;0.57;93.08;94886.03;1052877;28;20024;-85
2020/12/11 00:01:28;;;;;;;29.52;20.58;;;;;;;0.57;92.41;94886.81;1052927;28;20023;-84
2020/12/11 00:01:58;;;;;;;35.95;22.63;;;;;;;0.47;93.14;94888.31;1052855;28;20050;-84
2020/12/11 00:02:28;;;;;;;33.38;22.38;;;;;;;0.47;93.54;94883.91;1052449;28;20442;-85
2020/12/11 00:02:59;;;;;;;32.33;22.10;;;;;;;0.47;92.97;94883.91;1051821;28;20036;-85
2020/12/11 00:03:29;;;;;;;31.67;22.27;;;;;;;0.41;93.70;94879.56;1052514;28;20373;-85
2020/12/11 00:04:00;;;;;;;33.38;22.42;;;;;;;0.51;94.48;94886.91;1052332;28;20090;-84
2020/12/11 00:04:31;;;;;;;33.53;22.98;;;;;;;0.52;94.01;94881.47;1052324;28;20035;-84
2020/12/11 00:05:07;;;;;;;34.10;22.92;;;;;;;0.52;93.28;94881.47;1052698;28;20103;-85
2020/12/11 00:05:40;;;;;;;33.05;21.55;;;;;;;0.53;93.63;94885.66;1049863;28;20096;-84
2020/12/11 00:06:19;;;;;;;34.58;22.88;;;;;;;0.51;93.16;94879.06;1048747;28;20028;-84
2020/12/11 00:06:49;;;;;;;31.88;22.10;;;;;;;0.56;93.30;94887.03;1044019;28;20032;-84
2020/12/11 00:07:20;;;;;;;34.80;23.05;;;;;;;0.51;93.60;94889.50;1045488;28;20020;-84
2020/12/11 00:07:50;;;;;;;35.03;22.83;;;;;;;0.52;93.21;94889.28;1048520;28;20039;-83
2020/12/11 00:08:20;;;;;;;33.50;22.50;;;;;;;0.51;93.80;94887.69;1048396;28;20035;-82
2020/12/11 00:08:51;;;;;;;33.42;22.05;;;;;;;0.57;93.93;94881.59;1048365;28;20032;-83
2020/12/11 00:09:23;;;;;;;34.90;22.90;;;;;;;0.54;92.99;94881.25;1052639;28;20016;-83
2020/12/11 00:09:53;;;;;;;34.13;23.45;;;;;;;0.51;93.94;94877.25;1048527;28;20397;-83
2020/12/11 00:10:24;;;;;;;35.63;22.88;;;;;;;0.54;94.04;94881.25;1048614;28;20024;-83
2020/12/11 00:10:54;;;;;;;35.72;23.65;;;;;;;0.53;93.49;94877.84;1048324;28;20029;-83
2020/12/11 00:11:25;;;;;;;33.00;23.08;;;;;;;0.50;93.75;94875.69;1048637;28;20028;-83
2020/12/11 00:11:56;;;;;;;32.50;22.85;;;;;;;0.53;93.44;94877.06;1054512;28;20031;-83
2020/12/11 00:12:26;;;;;;;34.72;23.73;;;;;;;0.53;94.10;94880.44;1052664;28;20388;-83
2020/12/11 00:12:57;;;;;;;31.85;21.85;;;;;;;0.52;94.18;94873.66;1053150;28;20028;-83
2020/12/11 00:13:27;;;;;;;35.72;23.48;;;;;;;0.53;94.03;94875.22;1053403;28;20024;-84
2020/12/11 00:13:58;;;;;;;32.53;22.05;;;;;;;0.54;94.14;94884.66;1052328;28;20059;-83
2020/12/11 00:14:28;;;;;;;35.10;23.20;;;;;;;0.51;93.77;94879.88;1052520;28;20119;-83
2020/12/11 00:14:59;;;;;;;33.20;22.30;;;;;;;0.55;94.37;94875.81;1052792;28;20040;-83
2020/12/11 00:15:30;;;;;;;39.65;24.40;;;;;;;0.51;93.58;94869.44;1052395;28;20038;-84
2020/12/11 00:16:00;;;;;;;34.65;22.90;;;;;;;0.55;94.15;94873.22;1052825;28;20453;-84
2020/12/11 00:16:31;;;;;;;40.25;24.55;;;;;;;0.54;94.45;94874.22;1052647;28;20070;-83
2020/12/11 00:17:01;;;;;;;34.88;22.27;;;;;;;0.54;94.31;94874.22;1052408;28;20027;-82
2020/12/11 00:17:32;;;;;;;37.17;23.40;;;;;;;0.55;94.80;94873.22;1052926;28;20145;-82
2020/12/11 00:18:03;;;;;;;38.05;24.05;;;;;;;0.56;94.51;94879.22;1052893;28;20024;-82
2020/12/11 00:18:33;;;;;;;36.15;23.70;;;;;;;0.58;95.33;94867.56;1052590;28;20491;-82
2020/12/11 00:19:03;;;;;;;33.78;22.90;;;;;;;0.55;94.42;94870.59;1052567;28;20469;-83
2020/12/11 00:19:34;;;;;;;36.63;23.60;;;;;;;0.58;93.97;94869.34;1053337;28;20027;-83
2020/12/11 00:20:05;;;;;;;33.90;22.58;;;;;;;0.59;93.97;94865.75;1053924;28;20035;-83
2020/12/11 00:20:35;;;;;;;34.65;22.83;;;;;;;0.60;94.46;94869.16;1050148;28;20047;-83
2020/12/11 00:21:05;;;;;;;36.53;24.75;;;;;;;0.60;93.87;94874.38;1050626;28;20033;-83
2020/12/11 00:21:40;;;;;;;38.42;23.90;;;;;;;0.57;94.64;94868.56;1050221;28;20021;-82
2020/12/11 00:22:14;;;;;;;38.15;24.08;;;;;;;0.53;94.86;94877.84;1049880;28;20132;-83
2020/12/11 00:22:44;;;;;;;37.80;24.65;;;;;;;0.49;94.96;94876.69;1052855;28;20464;-83
2020/12/11 00:23:15;;;;;;;36.20;23.25;;;;;;;0.47;94.89;94873.47;1053394;28;20035;-84
2020/12/11 00:23:45;;;;;;;37.90;24.83;;;;;;;0.43;94.92;94874.13;1052720;28;20016;-84
2020/12/11 00:24:16;;;;;;;33.67;22.60;;;;;;;0.47;94.73;94878.69;1048227;28;20370;-83
2020/12/11 00:24:47;;;;;;;37.40;23.75;;;;;;;0.49;94.56;94875.91;1047995;28;20081;-83
2020/12/11 00:25:17;;;;;;;35.88;24.80;;;;;;;0.42;94.98;94870.72;1035892;28;20075;-83
2020/12/11 00:25:48;;;;;;;38.35;23.88;;;;;;;0.42;94.73;94875.94;1040366;28;20490;-84
2020/12/11 00:26:18;;;;;;;35.92;24.20;;;;;;;0.45;94.66;94885.13;1048282;28;20028;-83
2020/12/11 00:26:50;;;;;;;38.50;25.17;;;;;;;0.47;95.75;94877.91;1048572;28;20456;-83
2020/12/11 00:27:20;;;;;;;38.45;24.75;;;;;;;0.47;95.12;94876.09;1056364;28;20012;-83
2020/12/11 00:27:51;;;;;;;37.58;24.38;;;;;;;0.46;95.39;94874.50;1048597;28;20074;-83
2020/12/11 00:28:21;;;;;;;37.67;24.08;;;;;;;0.48;95.38;94872.50;1048815;28;20020;-84
2020/12/11 00:28:51;;;;;;;37.25;23.73;;;;;;;0.45;94.71;94875.50;1048752;28;20028;-83
2020/12/11 00:29:22;;;;;;;36.67;23.58;;;;;;;0.48;94.15;94867.28;1048715;28;20025;-83
2020/12/11 00:29:53;;;;;;;37.60;24.13;;;;;;;0.46;94.10;94871.88;1049177;28;20029;-84
2020/12/11 00:30:23;;;;;;;37.33;23.40;;;;;;;0.49;93.66;94874.09;1052878;28;20046;-84
2020/12/11 00:30:54;;;;;;;37.58;24.25;;;;;;;0.49;93.37;94870.69;1052909;28;20436;-84
2020/12/11 00:31:25;;;;;;;36.65;23.95;;;;;;;0.43;94.12;94872.31;1044744;28;20023;-83
2020/12/11 00:31:55;;;;;;;36.60;23.65;;;;;;;0.45;94.70;94870.28;1044779;28;20028;-82
2020/12/11 00:32:27;;;;;;;35.08;23.13;;;;;;;0.44;94.73;94870.50;1045770;28;20025;-84
2020/12/11 00:32:57;;;;;;;39.30;26.33;;;;;;;0.45;95.11;94872.91;1048204;28;20025;-84
2020/12/11 00:33:27;;;;;;;36.78;24.38;;;;;;;0.46;94.73;94871.88;1053533;28;20013;-84
2020/12/11 00:33:58;;;;;;;40.67;25.98;;;;;;;0.43;94.57;94871.53;1050992;28;20020;-83
2020/12/11 00:34:28;;;;;;;38.30;24.02;;;;;;;0.49;95.85;94881.09;1050196;28;20409;-83
2020/12/11 00:34:59;;;;;;;36.63;23.08;;;;;;;0.51;95.68;94885.09;1048953;28;20488;-83
2020/12/11 00:35:29;;;;;;;38.00;25.05;;;;;;;0.44;95.33;94878.34;1053366;28;20025;-84
2020/12/11 00:36:00;;;;;;;37.42;24.25;;;;;;;0.50;94.76;94873.06;1053602;28;20020;-84
2020/12/11 00:36:30;;;;;;;38.63;23.90;;;;;;;0.49;94.47;94875.91;1053370;28;20024;-84
2020/12/11 00:37:01;;;;;;;40.00;25.20;;;;;;;0.53;95.43;94882.25;1050677;28;20028;-83
2020/12/11 00:37:31;;;;;;;38.75;25.17;;;;;;;0.50;95.41;94875.69;1053462;28;20032;-84
2020/12/11 00:38:01;;;;;;;36.88;23.52;;;;;;;0.47;95.58;94878.69;1052200;28;20471;-83
2020/12/11 00:38:33;;;;;;;41.25;25.63;;;;;;;0.49;95.73;94881.91;1051743;28;20024;-83
2020/12/11 00:39:04;;;;;;;43.40;25.75;;;;;;;0.44;94.86;94873.91;1042623;28;20325;-83
2020/12/11 00:39:34;;;;;;;39.15;24.30;;;;;;;0.49;94.95;94874.09;1046170;28;20021;-83
2020/12/11 00:40:05;;;;;;;37.42;23.42;;;;;;;0.44;94.80;94878.34;1045211;28;20021;-83
2020/12/11 00:40:35;;;;;;;38.38;23.58;;;;;;;0.46;95.71;94884.91;1046715;28;20040;-84
2020/12/11 00:41:06;;;;;;;35.45;23.50;;;;;;;0.49;95.62;94878.50;1054571;28;20058;-84
2020/12/11 00:41:39;;;;;;;41.65;25.38;;;;;;;0.49;95.59;94879.31;1054844;28;20050;-83
2020/12/11 00:42:09;;;;;;;36.22;23.90;;;;;;;0.52;94.54;94870.25;1054415;28;20082;-84
2020/12/11 00:42:40;;;;;;;40.67;23.80;;;;;;;0.47;94.41;94878.69;1054515;28;20020;-83
2020/12/11 00:43:10;;;;;;;38.85;24.35;;;;;;;0.44;94.91;94868.69;1054391;28;20078;-84
2020/12/11 00:43:41;;;;;;;37.70;24.02;;;;;;;0.48;95.89;94875.09;1053684;28;20078;-84
2020/12/11 00:44:11;;;;;;;37.70;24.35;;;;;;;0.49;96.36;94871.47;1053113;28;20105;-84
2020/12/11 00:44:41;;;;;;;35.33;22.65;;;;;;;0.57;96.22;94868.56;1053520;28;20455;-83
2020/12/11 00:45:12;;;;;;;37.83;23.83;;;;;;;0.57;95.91;94871.19;1053511;28;20032;-83
2020/12/11 00:45:43;;;;;;;40.88;24.75;;;;;;;0.63;95.70;94868.72;1053855;28;20103;-84
2020/12/11 00:46:13;;;;;;;39.08;23.63;;;;;;;0.56;94.32;94872.19;1053736;28;20031;-84
2020/12/11 00:46:44;;;;;;;38.40;24.10;;;;;;;0.56;95.24;94874.00;1053634;28;20043;-83
2020/12/11 00:47:14;;;;;;;38.42;23.83;;;;;;;0.52;95.40;94878.06;1054204;28;20481;-83
2020/12/11 00:47:44;;;;;;;37.92;24.13;;;;;;;0.50;94.40;94869.66;1050180;28;20171;-83
2020/12/11 00:48:15;;;;;;;40.55;25.45;;;;;;;0.39;95.37;94872.97;1049769;28;20027;-83
2020/12/11 00:48:45;;;;;;;40.78;24.80;;;;;;;0.35;95.76;94872.59;1045155;28;20020;-84
2020/12/11 00:49:16;;;;;;;37.72;22.95;;;;;;;0.39;95.00;94871.16;1049128;28;20028;-83
2020/12/11 00:49:46;;;;;;;43.47;25.65;;;;;;;0.41;94.67;94869.13;1053789;28;20020;-83
2020/12/11 00:50:17;;;;;;;36.90;23.63;;;;;;;0.38;94.94;94876.59;1053041;28;20120;-83
2020/12/11 00:50:47;;;;;;;42.03;25.58;;;;;;;0.40;95.09;94874.56;1053654;28;20024;-83
2020/12/11 00:51:19;;;;;;;40.65;24.90;;;;;;;0.38;95.42;94880.00;1053551;28;20024;-83
2020/12/11 00:51:56;;;;;;;42.47;24.48;;;;;;;0.38;96.04;94877.41;1053188;28;20024;-83
2020/12/11 00:52:27;;;;;;;41.65;24.83;;;;;;;0.35;96.16;94875.19;1053383;28;20036;-83
2020/12/11 00:52:58;;;;;;;41.13;25.08;;;;;;;0.29;95.90;94878.69;1052566;28;20020;-83
2020/12/11 00:53:28;;;;;;;44.60;26.00;;;;;;;0.32;95.85;94877.44;1053342;28;20036;-83
2020/12/11 00:53:59;;;;;;;39.58;25.02;;;;;;;0.38;95.67;94874.78;1053115;28;20016;-83
2020/12/11 00:54:29;;;;;;;40.70;25.42;;;;;;;0.31;96.13;94871.44;1053959;28;20012;-83
2020/12/11 00:54:59;;;;;;;43.55;25.77;;;;;;;0.32;96.04;94872.22;1049843;28;20025;-83
2020/12/11 00:55:30;;;;;;;45.97;27.00;;;;;;;0.29;96.46;94869.06;1054190;28;20024;-83
2020/12/11 00:56:01;;;;;;;45.33;25.60;;;;;;;0.36;96.77;94876.81;1053218;28;20358;-83
2020/12/11 00:56:31;;;;;;;42.78;25.15;;;;;;;0.38;96.56;94869.56;1053441;28;20512;-83
2020/12/11 00:57:01;;;;;;;48.33;26.75;;;;;;;0.37;96.34;94867.19;1053943;28;20016;-83
2020/12/11 00:57:32;;;;;;;42.97;25.88;;;;;;;0.37;96.43;94873.19;1054199;28;20024;-83
2020/12/11 00:58:02;;;;;;;40.30;24.45;;;;;;;0.39;96.68;94862.56;1054483;28;20024;-83
2020/12/11 00:58:33;;;;;;;43.45;24.55;;;;;;;0.35;96.73;94862.16;1053411;28;20032;-83
2020/12/11 00:59:03;;;;;;;42.03;25.08;;;;;;;0.40;96.65;94869.34;1054813;28;20020;-83
2020/12/11 00:59:34;;;;;;;43.70;24.85;;;;;;;0.39;95.85;94865.16;1054679;28;20060;-83
2020/12/11 01:00:05;;;;;;;41.33;24.83;;;;;;;0.40;96.40;94872.75;1053890;28;20051;-84
2020/12/11 01:00:36;;;;;;;45.15;24.50;;;;;;;0.40;95.77;94864.16;1054156;28;20496;-83
2020/12/11 01:01:06;;;;;;;41.17;24.48;;;;;;;0.42;95.89;94860.31;1053230;28;20032;-83
2020/12/11 01:01:37;;;;;;;47.42;25.75;;;;;;;0.39;96.03;94859.94;1055118;28;20061;-84
2020/12/11 01:02:07;;;;;;;40.72;24.77;;;;;;;0.51;95.83;94863.44;1049671;28;20020;-83
2020/12/11 01:02:39;;;;;;;41.40;26.27;;;;;;;0.50;95.88;94861.84;1049767;28;20025;-84
2020/12/11 01:03:11;;;;;;;46.30;24.10;;;;;;;0.48;95.84;94863.88;1049267;28;20024;-83
2020/12/11 01:03:41;;;;;;;41.40;24.90;;;;;;;0.53;95.69;94856.19;1049934;28;20048;-84
2020/12/11 01:04:11;;;;;;;46.30;25.73;;;;;;;0.57;95.51;94858.13;1053563;28;20032;-83
2020/12/11 01:04:42;;;;;;;44.22;26.08;;;;;;;0.47;95.56;94852.63;1048963;28;20032;-84
2020/12/11 01:05:13;;;;;;;45.85;24.95;;;;;;;0.45;95.13;94852.03;1041075;28;20018;-83
2020/12/11 01:05:44;;;;;;;45.78;26.23;;;;;;;0.45;95.38;94852.03;1041478;28;20160;-83
2020/12/11 01:06:14;;;;;;;42.35;25.08;;;;;;;0.49;95.27;94855.03;1041234;28;20018;-84
2020/12/11 01:06:46;;;;;;;51.03;27.10;;;;;;;0.47;95.07;94850.00;1041486;28;20085;-82
2020/12/11 01:07:17;;;;;;;42.08;24.02;;;;;;;0.47;95.30;94852.63;1048744;28;20020;-80
2020/12/11 01:07:47;;;;;;;45.38;25.38;;;;;;;0.47;95.31;94850.00;1048525;28;21521;-81
2020/12/11 01:08:17;;;;;;;44.28;25.05;;;;;;;0.47;95.55;94851.81;1045226;28;20025;-83
2020/12/11 01:08:48;;;;;;;42.60;25.70;;;;;;;0.51;95.82;94850.41;1044883;28;20025;-82
2020/12/11 01:09:18;;;;;;;44.20;24.80;;;;;;;0.47;95.74;94852.63;1048793;28;20025;-83
2020/12/11 01:09:49;;;;;;;44.13;25.75;;;;;;;0.52;96.69;94855.41;1048979;28;20535;-82
2020/12/11 01:10:20;;;;;;;46.15;26.00;;;;;;;0.48;96.22;94853.44;1053072;28;20016;-82
2020/12/11 01:10:50;;;;;;;44.33;25.08;;;;;;;0.54;96.57;94855.19;1053236;28;20031;-82
2020/12/11 01:11:21;;;;;;;49.42;27.80;;;;;;;0.49;95.91;94855.84;1053193;28;20031;-82
2020/12/11 01:11:51;;;;;;;44.25;25.60;;;;;;;0.55;95.30;94862.78;1053126;28;20027;-82
2020/12/11 01:12:22;;;;;;;44.97;25.83;;;;;;;0.58;94.93;94858.94;1052797;28;20034;-83
2020/12/11 01:12:52;;;;;;;45.00;25.65;;;;;;;0.52;95.36;94859.81;1052625;28;20024;-82
2020/12/11 01:13:23;;;;;;;45.20;25.75;;;;;;;0.50;95.14;94862.63;1052490;28;20023;-82
2020/12/11 01:13:53;;;;;;;40.88;24.48;;;;;;;0.53;94.93;94861.41;1052471;28;20047;-82
2020/12/11 01:14:24;;;;;;;43.40;25.10;;;;;;;0.52;95.56;94860.59;1052534;28;20381;-82
2020/12/11 01:14:54;;;;;;;42.53;25.30;;;;;;;0.47;95.63;94867.47;1052805;28;20035;-83
2020/12/11 01:15:24;;;;;;;42.60;25.25;;;;;;;0.47;95.77;94867.47;1052916;28;20017;-82
2020/12/11 01:15:55;;;;;;;42.70;23.92;;;;;;;0.33;95.69;94860.78;1053003;28;20469;-82
2020/12/11 01:16:26;;;;;;;42.90;25.33;;;;;;;0.27;95.93;94862.47;1053586;28;20024;-82
2020/12/11 01:16:56;;;;;;;45.65;25.65;;;;;;;0.26;96.19;94861.66;1053631;28;20032;-82
2020/12/11 01:17:26;;;;;;;39.25;24.33;;;;;;;0.34;96.24;94865.78;1053521;28;20028;-83
2020/12/11 01:17:58;;;;;;;41.95;25.27;;;;;;;0.34;95.92;94859.78;1054516;28;20024;-83
2020/12/11 01:18:28;;;;;;;42.50;25.60;;;;;;;0.41;96.64;94866.53;1053625;28;20020;-82
2020/12/11 01:18:59;;;;;;;41.47;25.35;;;;;;;0.36;96.28;94866.41;1053197;28;20016;-83
2020/12/11 01:19:29;;;;;;;42.90;25.48;;;;;;;0.39;96.57;94868.56;1053223;28;20082;-83
2020/12/11 01:20:00;;;;;;;42.42;24.45;;;;;;;0.37;97.24;94862.78;1053600;28;20362;-83
2020/12/11 01:20:30;;;;;;;41.38;24.75;;;;;;;0.39;97.08;94862.56;1053511;28;20477;-83
2020/12/11 01:21:00;;;;;;;37.40;24.25;;;;;;;0.44;97.02;94858.28;1053454;28;20031;-83
2020/12/11 01:21:31;;;;;;;40.25;25.40;;;;;;;0.51;95.63;94864.22;1053442;28;20020;-83
2020/12/11 01:22:04;;;;;;;45.08;25.80;;;;;;;0.48;95.25;94859.47;1053565;28;20012;-82
2020/12/11 01:22:34;;;;;;;42.60;25.38;;;;;;;0.47;95.39;94863.06;1053493;28;20012;-83
2020/12/11 01:23:05;;;;;;;44.95;25.75;;;;;;;0.44;95.92;94857.47;1053550;28;20039;-82
2020/12/11 01:23:35;;;;;;;38.58;23.40;;;;;;;0.44;95.46;94862.69;1053427;28;20016;-83
2020/12/11 01:24:07;;;;;;;40.47;24.60;;;;;;;0.49;95.38;94858.44;1053508;28;20031;-83
2020/12/11 01:24:37;;;;;;;39.90;24.70;;;;;;;0.49;96.56;94860.25;1053555;28;20051;-83
2020/12/11 01:25:08;;;;;;;39.42;23.02;;;;;;;0.50;95.99;94854.81;1053532;28;20024;-84
2020/12/11 01:25:38;;;;;;;37.15;22.92;;;;;;;0.51;95.01;94855.63;1053513;28;20039;-83
2020/12/11 01:26:09;;;;;;;41.05;25.02;;;;;;;0.54;94.42;94855.97;1053378;28;20035;-82
2020/12/11 01:26:45;;;;;;;40.67;23.63;;;;;;;0.46;95.25;94855.44;1053466;28;20028;-82
2020/12/11 01:27:15;;;;;;;41.28;25.00;;;;;;;0.46;95.36;94858.06;1053077;28;20093;-82
2020/12/11 01:27:46;;;;;;;37.78;23.50;;;;;;;0.46;95.70;94851.03;1053163;28;20514;-82
2020/12/11 01:28:18;;;;;;;39.88;24.40;;;;;;;0.50;95.99;94852.22;1054116;28;20024;-81
2020/12/11 01:28:49;;;;;;;38.28;24.75;;;;;;;0.51;95.49;94859.03;1053516;28;20342;-83
2020/12/11 01:29:20;;;;;;;40.05;23.63;;;;;;;0.48;94.81;94846.44;1053456;28;20034;-83
2020/12/11 01:29:50;;;;;;;42.55;25.25;;;;;;;0.45;94.83;94846.03;1053025;28;20016;-84
2020/12/11 01:30:21;;;;;;;42.17;23.92;;;;;;;0.52;95.70;94855.41;1053296;28;20404;-86
2020/12/11 01:30:51;;;;;;;42.33;25.98;;;;;;;0.53;95.90;94849.16;1057446;28;20011;-85
2020/12/11 01:31:21;;;;;;;40.08;24.42;;;;;;;0.56;95.20;94850.53;1058127;28;20024;-83
2020/12/11 01:31:58;;;;;;;42.15;25.10;;;;;;;0.52;95.47;94844.97;1058045;28;20019;-85
2020/12/11 01:32:31;;;;;;;41.20;25.30;;;;;;;0.51;96.01;94859.03;1057978;28;20036;-84
2020/12/11 01:33:02;;;;;;;40.80;24.73;;;;;;;0.50;95.91;94852.22;1057920;28;20008;-83
2020/12/11 01:33:32;;;;;;;41.50;25.48;;;;;;;0.43;94.95;94848.06;1058150;28;20032;-83
2020/12/11 01:34:03;;;;;;;41.83;25.00;;;;;;;0.42;95.42;94849.09;1058224;28;20047;-86
2020/12/11 01:34:33;;;;;;;42.08;25.13;;;;;;;0.43;94.84;94848.88;1058422;28;20000;-84
2020/12/11 01:35:03;;;;;;;39.30;24.20;;;;;;;0.46;94.63;94840.59;1058601;28;20004;-85
2020/12/11 01:35:34;;;;;;;39.72;25.33;;;;;;;0.49;95.36;94853.22;1058204;28;20079;-85
2020/12/11 01:36:04;;;;;;;37.17;24.58;;;;;;;0.53;94.50;94851.78;1058426;28;20000;-86
2020/12/11 01:36:35;;;;;;;39.42;24.75;;;;;;;0.49;94.57;94853.22;1058133;28;20016;-86
2020/12/11 01:37:05;;;;;;;40.15;24.98;;;;;;;0.49;95.30;94852.44;1058319;28;20012;-84
2020/12/11 01:37:36;;;;;;;43.58;26.08;;;;;;;0.44;95.02;94854.88;1058147;28;20044;-85
2020/12/11 01:38:06;;;;;;;41.30;24.80;;;;;;;0.49;94.50;94849.81;1058183;28;20027;-85
2020/12/11 01:38:36;;;;;;;41.78;24.98;;;;;;;0.50;95.49;94857.44;1058389;28;20023;-86
2020/12/11 01:39:07;;;;;;;40.40;25.83;;;;;;;0.46;95.57;94856.25;1058739;28;20040;-86
2020/12/11 01:39:37;;;;;;;43.10;25.83;;;;;;;0.47;95.78;94850.00;1058506;28;20028;-86
2020/12/11 01:40:08;;;;;;;37.03;23.00;;;;;;;0.53;95.36;94857.00;1058208;28;20012;-85
2020/12/11 01:40:38;;;;;;;40.25;25.27;;;;;;;0.53;95.32;94857.00;1049476;28;20461;-86
2020/12/11 01:41:09;;;;;;;38.20;24.10;;;;;;;0.48;95.45;94858.66;1049392;28;20032;-87
2020/12/11 01:41:39;;;;;;;38.83;23.77;;;;;;;0.48;95.60;94863.88;1053717;28;20016;-84
2020/12/11 01:42:12;;;;;;;42.13;26.13;;;;;;;0.44;95.87;94866.09;1049550;28;20476;-84
2020/12/11 01:42:43;;;;;;;42.58;25.67;;;;;;;0.48;95.52;94862.06;1049205;28;20026;-85
2020/12/11 01:43:14;;;;;;;42.95;26.02;;;;;;;0.43;96.16;94866.31;1049241;28;20385;-84
2020/12/11 01:43:44;;;;;;;42.85;25.77;;;;;;;0.43;96.96;94856.69;1049708;28;20100;-84
2020/12/11 01:44:15;;;;;;;45.63;27.13;;;;;;;0.46;97.11;94869.28;1053487;28;20380;-84
2020/12/11 01:44:52;;;;;;;42.33;25.70;;;;;;;0.44;97.13;94863.50;1053802;28;20028;-84
2020/12/11 01:45:22;;;;;;;39.90;24.75;;;;;;;0.45;97.29;94864.28;1053442;28;20028;-84
2020/12/11 01:45:53;;;;;;;41.03;25.95;;;;;;;0.44;96.76;94853.06;1053429;28;20027;-85
2020/12/11 01:46:23;;;;;;;40.97;24.63;;;;;;;0.42;96.73;94857.69;1053253;28;20073;-84
2020/12/11 01:46:57;;;;;;;40.25;25.35;;;;;;;0.43;96.56;94861.91;1049067;28;20020;-83
2020/12/11 01:47:27;;;;;;;39.05;24.25;;;;;;;0.51;95.65;94850.41;1044806;28;20485;-84
2020/12/11 01:47:58;;;;;;;39.80;23.98;;;;;;;0.56;95.29;94853.16;1048828;28;20112;-84
2020/12/11 01:48:28;;;;;;;36.90;23.90;;;;;;;0.56;95.10;94853.94;1044941;28;20448;-84
2020/12/11 01:48:59;;;;;;;38.40;23.35;;;;;;;0.61;95.03;94858.53;1044786;28;20021;-84
2020/12/11 01:49:30;;;;;;;40.58;24.55;;;;;;;0.61;96.43;94855.13;1040905;28;20026;-85
2020/12/11 01:50:01;;;;;;;40.10;25.58;;;;;;;0.50;95.71;94846.19;1049963;28;20488;-84
2020/12/11 01:50:33;;;;;;;38.42;25.20;;;;;;;0.53;96.17;94856.19;1053194;28;20012;-83
2020/12/11 01:51:03;;;;;;;42.55;24.58;;;;;;;0.50;96.56;94852.22;1049349;28;20020;-84
2020/12/11 01:51:34;;;;;;;41.17;24.80;;;;;;;0.54;95.78;94845.53;1044893;28;20013;-84
2020/12/11 01:52:05;;;;;;;38.70;24.52;;;;;;;0.52;95.35;94850.19;1044823;28;20017;-84
2020/12/11 01:52:36;;;;;;;40.47;25.00;;;;;;;0.57;95.20;94849.53;1040892;28;20045;-84
2020/12/11 01:53:09;;;;;;;40.72;25.00;;;;;;;0.54;96.15;94849.97;1044854;28;20567;-84
2020/12/11 01:53:45;;;;;;;34.60;23.00;;;;;;;0.64;95.38;94852.06;1052994;28;20417;-84
2020/12/11 01:54:16;;;;;;;38.33;23.60;;;;;;;0.58;95.20;94853.72;1051881;28;20027;-84
2020/12/11 01:54:46;;;;;;;41.13;25.50;;;;;;;0.54;94.95;94847.34;1044686;28;20032;-85
2020/12/11 01:55:17;;;;;;;41.72;26.45;;;;;;;0.43;95.32;94856.69;1044696;28;20039;-84
2020/12/11 01:55:48;;;;;;;42.05;24.95;;;;;;;0.47;95.47;94850.00;1040636;28;20529;-84
2020/12/11 01:56:18;;;;;;;39.22;26.02;;;;;;;0.51;96.29;94853.81;1045101;28;20027;-84
2020/12/11 01:56:59;;;;;;;38.63;25.35;;;;;;;0.47;96.57;94847.41;1049023;28;20501;-86
2020/12/11 01:57:53;;;;;;;39.72;25.48;;;;;;;0.50;96.45;94847.00;1044854;28;20559;-85
2020/12/11 01:58:24;;;;;;;40.05;25.15;;;;;;;0.40;96.03;94851.91;1036974;28;20553;-85
2020/12/11 01:59:02;;;;;;;40.85;24.33;;;;;;;0.39;96.41;94839.91;1040667;28;20113;-85
2020/12/11 01:59:38;;;;;;;40.63;26.42;;;;;;;0.42;95.76;94839.44;1044900;28;20151;-85
2020/12/11 02:00:08;;;;;;;36.95;24.05;;;;;;;0.45;95.20;94835.63;1045546;28;20104;-83
2020/12/11 02:00:41;;;;;;;39.67;26.25;;;;;;;0.46;95.04;94835.38;1048683;28;20428;-84
2020/12/11 02:01:16;;;;;;;36.75;24.08;;;;;;;0.47;95.11;94836.19;1044940;28;20021;-82
2020/12/11 02:01:47;;;;;;;35.45;23.75;;;;;;;0.47;94.88;94842.19;1042343;28;20630;-83
2020/12/11 02:02:18;;;;;;;37.42;23.90;;;;;;;0.48;95.11;94830.78;1044659;28;20017;-83
2020/12/11 02:02:51;;;;;;;38.50;25.23;;;;;;;0.51;94.89;94838.16;1037356;28;20478;-83
2020/12/11 02:03:22;;;;;;;41.38;26.00;;;;;;;0.52;94.76;94834.53;1041533;28;20405;-83
2020/12/11 02:03:53;;;;;;;40.13;25.30;;;;;;;0.55;94.77;94834.09;1044703;28;20028;-83
2020/12/11 02:04:23;;;;;;;39.45;25.33;;;;;;;0.54;94.80;94826.50;1045746;28;20029;-83
2020/12/11 02:04:53;;;;;;;39.25;24.80;;;;;;;0.58;94.48;94833.66;1053138;28;20468;-83
2020/12/11 02:05:24;;;;;;;38.95;25.10;;;;;;;0.60;94.45;94830.84;1052874;28;20078;-83
2020/12/11 02:05:54;;;;;;;34.90;24.30;;;;;;;0.64;94.23;94826.78;1049143;28;20040;-84
2020/12/11 02:06:25;;;;;;;36.75;25.23;;;;;;;0.50;94.46;94831.34;1049104;28;20074;-83
2020/12/11 02:06:55;;;;;;;35.25;24.88;;;;;;;0.53;94.51;94825.69;1049153;28;20086;-83
2020/12/11 02:07:26;;;;;;;34.60;23.98;;;;;;;0.54;94.21;94822.06;1048818;28;20028;-83
2020/12/11 02:07:57;;;;;;;36.33;24.85;;;;;;;0.56;95.13;94820.03;1051337;28;20028;-83
2020/12/11 02:08:27;;;;;;;38.20;25.25;;;;;;;0.51;95.01;94821.72;1048712;28;20082;-83
2020/12/11 02:08:58;;;;;;;39.60;24.95;;;;;;;0.47;94.61;94821.34;1044791;28;20025;-83
2020/12/11 02:09:31;;;;;;;37.00;25.73;;;;;;;0.53;94.49;94825.69;1044639;28;20024;-83
2020/12/11 02:10:02;;;;;;;37.00;25.85;;;;;;;0.54;94.24;94821.28;1045114;28;20021;-84
2020/12/11 02:10:32;;;;;;;39.75;26.35;;;;;;;0.49;94.10;94824.56;1049312;28;20028;-83
2020/12/11 02:11:04;;;;;;;38.10;25.92;;;;;;;0.40;95.44;94819.84;1052992;28;20020;-83
2020/12/11 02:11:34;;;;;;;40.60;26.73;;;;;;;0.36;95.43;94824.69;1052901;28;20023;-83
2020/12/11 02:12:05;;;;;;;36.03;25.58;;;;;;;0.29;95.50;94829.97;1053029;28;20098;-83
2020/12/11 02:12:36;;;;;;;37.33;26.17;;;;;;;0.33;95.40;94819.09;1052987;28;20020;-83
2020/12/11 02:13:09;;;;;;;37.55;25.85;;;;;;;0.41;94.87;94819.63;1052970;28;20066;-83
2020/12/11 02:13:41;;;;;;;35.50;25.80;;;;;;;0.41;94.66;94822.22;1053439;28;20368;-83
2020/12/11 02:14:12;;;;;;;40.30;27.25;;;;;;;0.38;94.97;94817.44;1053008;28;20107;-83
2020/12/11 02:14:42;;;;;;;38.22;25.38;;;;;;;0.35;95.12;94820.47;1052987;28;20032;-83
2020/12/11 02:15:13;;;;;;;38.25;25.77;;;;;;;0.34;95.01;94820.69;1049006;28;20020;-83
2020/12/11 02:15:43;;;;;;;38.33;25.60;;;;;;;0.39;95.99;94821.66;1048635;28;20378;-83
2020/12/11 02:16:13;;;;;;;37.67;24.92;;;;;;;0.34;94.95;94823.28;1048777;28;20453;-83
2020/12/11 02:16:44;;;;;;;43.42;27.00;;;;;;;0.29;95.02;94823.94;1048869;28;20024;-83
2020/12/11 02:17:15;;;;;;;38.72;25.50;;;;;;;0.20;95.51;94828.63;1053008;28;20057;-83
2020/12/11 02:17:47;;;;;;;37.55;26.15;;;;;;;0.21;95.57;94826.81;1053211;28;20492;-83
2020/12/11 02:18:17;;;;;;;33.70;23.73;;;;;;;0.28;95.19;94827.56;1053024;28;20469;-83
2020/12/11 02:18:52;;;;;;;33.35;23.75;;;;;;;0.33;94.95;94824.31;1052934;28;20020;-83
2020/12/11 02:19:22;;;;;;;34.55;24.50;;;;;;;0.28;94.70;94820.56;1053067;28;20546;-83
2020/12/11 02:19:56;;;;;;;34.53;23.88;;;;;;;0.28;94.02;94825.75;1053075;28;20020;-83
2020/12/11 02:20:27;;;;;;;35.42;24.23;;;;;;;0.31;94.13;94821.91;1053344;28;20035;-83
2020/12/11 02:20:57;;;;;;;34.83;24.50;;;;;;;0.32;93.76;94815.69;1052857;28;20008;-83
2020/12/11 02:21:31;;;;;;;33.38;24.13;;;;;;;0.34;93.53;94823.28;1053047;28;20468;-84
2020/12/11 02:22:02;;;;;;;33.88;23.42;;;;;;;0.37;93.57;94825.50;1052968;28;20551;-83
2020/12/11 02:22:32;;;;;;;32.00;23.25;;;;;;;0.40;93.50;94818.03;1053349;28;20042;-84
2020/12/11 02:23:03;;;;;;;31.77;23.27;;;;;;;0.42;93.32;94813.38;1057289;28;20450;-84
2020/12/11 02:23:35;;;;;;;35.50;24.13;;;;;;;0.43;93.05;94811.56;1056481;28;20031;-84
2020/12/11 02:24:06;;;;;;;33.13;23.98;;;;;;;0.43;92.84;94820.19;1052805;28;20481;-84
2020/12/11 02:24:36;;;;;;;35.72;24.20;;;;;;;0.41;93.26;94814.41;1052954;28;20023;-84